Mount Zion, GA (30150)

9:54 PM EST on March 05, 2015 (GMT -0500)
West Georgia Regional-Gray | Change Station
CLOSE
Current Station
Airport
Location: Carrollton,
Elevation: 1161 ft
Nearby Weather Stations
Active Advisory: Special Statement

Elev 1161 ft 33.63 °N, 85.15 °W | Updated 19 minutes ago

Overcast
Overcast
32 °F
Feels Like 24 °F
N
10
Wind Variable Wind from North

Today
High -- | Low -- °F
--% Chance of Precip.
Yesterday
High -- | Low -- °F
Precip. -- in
7:04 AM 6:40 PM
Full, 100% visible
Pressure 30.34 in
Visibility 10.0 miles
Clouds Overcast 1300 ft
Windchill 24 °F
Dew Point 30 °F
Humidity 93%
Rainfall 0.00 in
Snow Depth Not available.
UV 0 out of 12
Pollen 3.20 out of 12
Air Quality Not available.
Flu Activity Not available.
METAR KCTJ 060235Z AUTO 35009KT 10SM OVC013 00/M01 A3034 RMK AO2

More Conditions Fewer Conditions

Pressure 30.34 in
Visibility 10.0 miles
Clouds Overcast 1300 ft
Windchill 24 °F
Dew Point 30 °F
Humidity 93%
Rainfall 0.00 in
Snow Depth Not available.
UV 0 out of 12
Pollen 3.20 out of 12
Air Quality Not available.
Flu Activity Not available.
METAR KCTJ 060235Z AUTO 35009KT 10SM OVC013 00/M01 A3034 RMK AO2

More Conditions Fewer Conditions

10-Day Weather Forecast

Almanac

Astronomy

Mar. 05, 2015 Rise Set
Actual Time
Civil Twilight
Nautical Twilight
Astronomical Twilight
Moon
Length of Visible Light
Length of Day
Tomorrow will be .
, % of the Moon is Illuminated

Today's Extremes

State Highs State Lows

Community

WunderPhotos

Upload Photos

1,803,134 photos uploaded!

WunderBlogs® & News

Nearby

Air Quality

  Air Quality AQ Index Pollutant
Not available.

Snow Depth

Station Depth Elevation

Earthquake Activity

City Distance Mag. Time & Date
Minimum magnitude displayed is 2.5.

Coastal Water Temperatures

Place Temperature

Nearby Weather Stations

Special Statement
Statement as of 2:56 PM EST on March 05, 2015

... Patchy black ice likely across north and much of central
Georgia tonight...

As a very cold air mass continues to spread in over the state
this evening and overnight... temperatures will fall at or below
freezing for most areas. This coupled with wet grounds from
widespread rains will result in patches of black ice... resulting
in slick spots on area roads and bridges. The main black ice
threat tonight will be generally along and north of a Columbus to
Macon to Warrenton line... and through Friday morning.

People traveling across north and much of central Georgia
tonight and Friday morning should use extra caution and be
prepared for slick spots on roads.